createdAt,value
2022-11-19T00:00:01.197Z,-1.24
2022-11-19T00:01:04.727Z,-1.25
2022-11-19T00:02:08.452Z,-1.26
2022-11-19T00:03:11.197Z,-1.28
2022-11-19T00:04:14.858Z,-1.29
2022-11-19T00:05:17.674Z,-1.30
2022-11-19T00:06:22.497Z,-1.29
2022-11-19T00:07:26.250Z,-1.29
2022-11-19T00:08:29.559Z,-1.28
2022-11-19T00:09:34.143Z,-1.25
2022-11-19T00:10:36.974Z,-1.26
2022-11-19T00:11:58.062Z,-1.27
2022-11-19T00:13:03.386Z,-1.27
2022-11-19T00:14:06.218Z,-1.26
2022-11-19T00:15:10.187Z,-1.26
2022-11-19T00:16:13.924Z,-1.27
2022-11-19T00:17:17.627Z,-1.28
2022-11-19T00:18:20.415Z,-1.28
2022-11-19T00:19:24.166Z,-1.29
2022-11-19T00:20:28.435Z,-1.32
2022-11-19T00:21:31.074Z,-1.32
2022-11-19T00:22:34.907Z,-1.31
2022-11-19T00:23:37.959Z,-1.32
2022-11-19T00:24:41.649Z,-1.33
2022-11-19T00:25:44.269Z,-1.34
2022-11-19T00:26:48.036Z,-1.34
2022-11-19T00:27:51.079Z,-1.36
2022-11-19T00:28:56.942Z,-1.36
2022-11-19T00:29:59.686Z,-1.36
2022-11-19T00:31:05.365Z,-1.37
2022-11-19T00:32:07.991Z,-1.38
2022-11-19T00:33:11.706Z,-1.40
2022-11-19T00:34:14.425Z,-1.41
2022-11-19T00:35:18.205Z,-1.41
2022-11-19T00:36:21.575Z,-1.43
2022-11-19T00:37:25.975Z,-1.43
2022-11-19T00:38:29.708Z,-1.43
2022-11-19T00:39:33.615Z,-1.42
2022-11-19T00:40:36.269Z,-1.41
2022-11-19T00:41:39.951Z,-1.39
2022-11-19T00:43:02.719Z,-1.38
2022-11-19T00:44:07.927Z,-1.37
2022-11-19T00:45:11.005Z,-1.38
2022-11-19T00:46:15.338Z,-1.38
2022-11-19T00:47:19.028Z,-1.38
2022-11-19T00:48:21.678Z,-1.39
2022-11-19T00:49:25.454Z,-1.39
2022-11-19T00:50:28.166Z,-1.39
2022-11-19T00:51:32.309Z,-1.38
2022-11-19T00:52:34.918Z,-1.39
2022-11-19T00:53:38.704Z,-1.40
2022-11-19T00:54:41.335Z,-1.40
2022-11-19T00:55:45.014Z,-1.40
2022-11-19T00:56:48.719Z,-1.43
2022-11-19T00:57:51.388Z,-1.45
2022-11-19T00:58:55.389Z,-1.46
2022-11-19T00:59:59.578Z,-1.46
2022-11-19T01:01:03.385Z,-1.49
2022-11-19T01:02:06.088Z,-1.51
2022-11-19T01:03:09.757Z,-1.53
2022-11-19T01:04:13.468Z,-1.52
2022-11-19T01:05:16.278Z,-1.52
2022-11-19T01:06:21.842Z,-1.53
2022-11-19T01:07:24.588Z,-1.55
2022-11-19T01:08:28.628Z,-1.55
2022-11-19T01:09:32.435Z,-1.55
2022-11-19T01:10:35.741Z,-1.57
2022-11-19T01:11:40.066Z,-1.58
2022-11-19T01:12:57.615Z,-1.59
2022-11-19T01:14:00.859Z,-1.60
2022-11-19T01:15:06.367Z,-1.61
2022-11-19T01:16:11.147Z,-1.61
2022-11-19T01:17:14.938Z,-1.61
2022-11-19T01:18:18.661Z,-1.63
2022-11-19T01:19:22.610Z,-1.66
2022-11-19T01:20:25.526Z,-1.69
2022-11-19T01:21:31.537Z,-1.74
2022-11-19T01:22:34.181Z,-1.79
2022-11-19T01:23:38.070Z,-1.85
2022-11-19T01:24:40.723Z,-1.89
2022-11-19T01:25:44.444Z,-1.95
2022-11-19T01:26:48.147Z,-1.98
2022-11-19T01:27:50.817Z,-2.02
2022-11-19T01:28:54.828Z,-2.05
2022-11-19T01:29:57.659Z,-2.08
2022-11-19T01:31:08.086Z,-2.13
2022-11-19T01:32:11.765Z,-2.17
2022-11-19T01:33:15.495Z,-2.20
2022-11-19T01:34:18.178Z,-2.24
2022-11-19T01:35:21.875Z,-2.25
2022-11-19T01:36:27.017Z,-2.26
2022-11-19T01:37:29.713Z,-2.28
2022-11-19T01:38:33.878Z,-2.30
2022-11-19T01:39:36.539Z,-2.30
2022-11-19T01:40:45.797Z,-2.30
2022-11-19T01:41:48.454Z,-2.29
2022-11-19T01:42:53.996Z,-2.28
2022-11-19T01:43:59.889Z,-2.26
2022-11-19T01:45:04.841Z,-2.26
2022-11-19T01:46:10.285Z,-2.24
2022-11-19T01:47:12.928Z,-2.23
2022-11-19T01:48:20.136Z,-2.21
2022-11-19T01:49:23.856Z,-2.20
2022-11-19T01:50:27.297Z,-2.16
2022-11-19T01:51:33.069Z,-2.14
2022-11-19T01:52:35.750Z,-2.12
2022-11-19T01:53:40.248Z,-2.10
2022-11-19T01:54:45.647Z,-2.09
2022-11-19T01:55:49.731Z,-2.09
2022-11-19T01:56:53.969Z,-2.07
2022-11-19T01:58:01.123Z,-2.06
2022-11-19T01:59:07.550Z,-2.06
2022-11-19T02:00:11.619Z,-2.07
2022-11-19T02:01:17.244Z,-2.07
2022-11-19T02:02:20.565Z,-2.06
2022-11-19T02:03:24.395Z,-2.04
2022-11-19T02:04:27.743Z,-2.06
2022-11-19T02:05:31.527Z,-2.05
2022-11-19T02:06:35.818Z,-2.06
2022-11-19T02:07:41.097Z,-2.06
2022-11-19T02:08:46.227Z,-2.08
2022-11-19T02:09:49.798Z,-2.09
2022-11-19T02:11:02.031Z,-2.06
2022-11-19T02:12:22.629Z,-2.05
2022-11-19T02:13:31.898Z,-2.05
2022-11-19T02:14:56.025Z,-2.06
2022-11-19T02:16:04.220Z,-2.05
2022-11-19T02:17:15.017Z,-2.05
2022-11-19T02:18:33.689Z,-2.05
2022-11-19T02:20:02.246Z,-2.05
2022-11-19T02:21:22.578Z,-2.05
2022-11-19T02:22:39.030Z,-2.09
2022-11-19T02:24:09.777Z,-2.07
2022-11-19T02:25:19.176Z,-2.09
2022-11-19T02:26:40.860Z,-2.09
2022-11-19T02:27:56.623Z,-2.09
2022-11-19T02:29:07.858Z,-2.08
2022-11-19T02:30:14.237Z,-2.08
2022-11-19T02:31:21.799Z,-2.06
2022-11-19T02:32:29.557Z,-2.04
2022-11-19T02:33:37.867Z,-2.03
2022-11-19T02:34:45.051Z,-2.03
2022-11-19T02:35:52.526Z,-2.02
2022-11-19T02:37:00.350Z,-2.03
2022-11-19T02:38:06.845Z,-2.03
2022-11-19T02:39:15.836Z,-2.03
2022-11-19T02:40:24.413Z,-2.02
2022-11-19T02:41:35.229Z,-2.02
2022-11-19T02:42:46.088Z,-2.00
2022-11-19T02:43:50.833Z,-1.98
2022-11-19T02:45:01.958Z,-1.97
2022-11-19T02:46:10.889Z,-1.94
2022-11-19T02:47:17.861Z,-1.90
2022-11-19T02:48:24.586Z,-1.89
2022-11-19T02:49:29.549Z,-1.87
2022-11-19T02:50:35.338Z,-1.85
2022-11-19T02:51:38.320Z,-1.81
2022-11-19T02:52:42.164Z,-1.79
2022-11-19T02:53:48.790Z,-1.80
2022-11-19T02:54:51.476Z,-1.79
2022-11-19T02:56:13.457Z,-1.78
2022-11-19T02:57:16.689Z,-1.78
2022-11-19T02:58:36.048Z,-1.79
2022-11-19T02:59:59.637Z,-1.79
2022-11-19T03:01:21.650Z,-1.78
2022-11-19T03:02:47.488Z,-1.76
2022-11-19T03:04:11.355Z,-1.74
2022-11-19T03:05:18.105Z,-1.72
2022-11-19T03:06:23.837Z,-1.69
2022-11-19T03:07:27.625Z,-1.66
2022-11-19T03:08:30.385Z,-1.66
2022-11-19T03:09:36.223Z,-1.66
2022-11-19T03:10:46.466Z,-1.65
2022-11-19T03:11:54.147Z,-1.66
2022-11-19T03:13:22.050Z,-1.65
2022-11-19T03:14:45.518Z,-1.67
2022-11-19T03:16:07.526Z,-1.71
2022-11-19T03:17:15.086Z,-1.71
2022-11-19T03:18:22.853Z,-1.70
2022-11-19T03:19:34.307Z,-1.70
2022-11-19T03:20:40.990Z,-1.67
2022-11-19T03:21:46.594Z,-1.65
2022-11-19T03:22:56.436Z,-1.63
2022-11-19T03:24:01.975Z,-1.63
2022-11-19T03:25:10.281Z,-1.65
2022-11-19T03:26:18.688Z,-1.65
2022-11-19T03:27:25.497Z,-1.62
2022-11-19T03:28:31.019Z,-1.61
2022-11-19T03:29:37.460Z,-1.59
2022-11-19T03:30:41.458Z,-1.61
2022-11-19T03:31:48.897Z,-1.61
2022-11-19T03:32:55.536Z,-1.60
2022-11-19T03:34:03.594Z,-1.60
2022-11-19T03:35:09.507Z,-1.59
2022-11-19T03:36:17.548Z,-1.59
2022-11-19T03:37:21.936Z,-1.58
2022-11-19T03:38:29.360Z,-1.57
2022-11-19T03:39:34.647Z,-1.58
2022-11-19T03:40:39.026Z,-1.57
2022-11-19T03:41:43.227Z,-1.57
2022-11-19T03:42:50.693Z,-1.55
2022-11-19T03:43:56.415Z,-1.55
2022-11-19T03:45:04.893Z,-1.52
2022-11-19T03:46:11.617Z,-1.50
2022-11-19T03:47:17.781Z,-1.48
2022-11-19T03:48:21.805Z,-1.48
2022-11-19T03:49:31.856Z,-1.46
2022-11-19T03:50:40.575Z,-1.44
2022-11-19T03:51:48.369Z,-1.43
2022-11-19T03:52:51.196Z,-1.41
2022-11-19T03:53:54.977Z,-1.40
2022-11-19T03:54:58.029Z,-1.37
2022-11-19T03:56:04.423Z,-1.37
2022-11-19T03:57:07.841Z,-1.35
2022-11-19T03:58:12.496Z,-1.32
2022-11-19T03:59:16.147Z,-1.29
2022-11-19T04:00:20.343Z,-1.25
2022-11-19T04:01:23.248Z,-1.21
2022-11-19T04:02:27.136Z,-1.18
2022-11-19T04:03:29.977Z,-1.17
2022-11-19T04:04:37.677Z,-1.15
2022-11-19T04:05:41.390Z,-1.14
2022-11-19T04:06:44.174Z,-1.12
2022-11-19T04:07:47.820Z,-1.09
2022-11-19T04:08:50.487Z,-1.08
2022-11-19T04:09:54.147Z,-1.06
2022-11-19T04:10:57.151Z,-1.06
2022-11-19T04:12:00.973Z,-1.07
2022-11-19T04:13:03.711Z,-1.08
2022-11-19T04:14:07.556Z,-1.09
2022-11-19T04:15:12.164Z,-1.10
2022-11-19T04:16:15.896Z,-1.12
2022-11-19T04:17:19.447Z,-1.15
2022-11-19T04:18:23.096Z,-1.16
2022-11-19T04:19:25.858Z,-1.18
2022-11-19T04:20:31.029Z,-1.17
2022-11-19T04:21:33.697Z,-1.18
2022-11-19T04:22:37.466Z,-1.20
2022-11-19T04:23:40.208Z,-1.23
2022-11-19T04:24:43.938Z,-1.24
2022-11-19T04:25:47.121Z,-1.26
2022-11-19T04:26:50.845Z,-1.26
2022-11-19T04:27:54.506Z,-1.26
2022-11-19T04:28:57.186Z,-1.27
2022-11-19T04:30:02.273Z,-1.26
2022-11-19T04:31:05.286Z,-1.24
2022-11-19T04:32:09.009Z,-1.24
2022-11-19T04:33:11.674Z,-1.22
2022-11-19T04:34:15.446Z,-1.23
2022-11-19T04:35:21.989Z,-1.23
2022-11-19T04:36:27.236Z,-1.23
2022-11-19T04:37:29.973Z,-1.23
2022-11-19T04:38:34.905Z,-1.23
2022-11-19T04:39:37.577Z,-1.22
2022-11-19T04:40:41.537Z,-1.22
2022-11-19T04:41:44.158Z,-1.23
2022-11-19T04:42:47.886Z,-1.22
2022-11-19T04:43:50.579Z,-1.22
2022-11-19T04:44:54.270Z,-1.21
2022-11-19T04:45:57.055Z,-1.20
2022-11-19T04:47:01.176Z,-1.20
2022-11-19T04:48:03.979Z,-1.19
2022-11-19T04:49:07.808Z,-1.18
2022-11-19T04:50:10.663Z,-1.18
2022-11-19T04:51:14.366Z,-1.17
2022-11-19T04:52:18.478Z,-1.19
2022-11-19T04:53:22.534Z,-1.18
2022-11-19T04:54:25.148Z,-1.20
2022-11-19T04:55:28.886Z,-1.21
2022-11-19T04:56:31.534Z,-1.22
2022-11-19T04:57:35.347Z,-1.23
2022-11-19T04:58:38.007Z,-1.24
2022-11-19T04:59:41.674Z,-1.24
2022-11-19T05:00:44.417Z,-1.26
2022-11-19T05:01:49.508Z,-1.25
2022-11-19T05:02:52.277Z,-1.25
2022-11-19T05:03:56.023Z,-1.25
2022-11-19T05:04:58.777Z,-1.27
2022-11-19T05:06:02.549Z,-1.28
2022-11-19T05:07:05.356Z,-1.27
2022-11-19T05:08:10.467Z,-1.26
2022-11-19T05:09:13.268Z,-1.25
2022-11-19T05:10:17.021Z,-1.22
2022-11-19T05:11:19.708Z,-1.22
2022-11-19T05:12:23.494Z,-1.22
2022-11-19T05:13:26.134Z,-1.24
2022-11-19T05:14:30.690Z,-1.24
2022-11-19T05:15:33.516Z,-1.25
2022-11-19T05:16:37.308Z,-1.25
2022-11-19T05:17:40.007Z,-1.26
2022-11-19T05:18:43.823Z,-1.28
2022-11-19T05:19:46.498Z,-1.29
2022-11-19T05:20:50.190Z,-1.31
2022-11-19T05:21:52.839Z,-1.29
2022-11-19T05:22:56.605Z,-1.29
2022-11-19T05:24:00.712Z,-1.28
2022-11-19T05:25:04.539Z,-1.29
2022-11-19T05:26:07.945Z,-1.30
2022-11-19T05:27:11.672Z,-1.31
2022-11-19T05:28:15.103Z,-1.30
2022-11-19T05:29:20.442Z,-1.29
2022-11-19T05:30:23.547Z,-1.28
2022-11-19T05:31:28.700Z,-1.26
2022-11-19T05:32:31.879Z,-1.24
2022-11-19T05:33:35.628Z,-1.20
2022-11-19T05:34:38.731Z,-1.18
2022-11-19T05:35:42.445Z,-1.16
2022-11-19T05:36:45.197Z,-1.15
2022-11-19T05:37:50.236Z,-1.13
2022-11-19T05:38:52.866Z,-1.12
2022-11-19T05:39:58.028Z,-1.09
2022-11-19T05:41:00.688Z,-1.07
2022-11-19T05:42:04.384Z,-1.03
2022-11-19T05:43:07.476Z,-1.02
2022-11-19T05:44:11.337Z,-1.01
2022-11-19T05:45:14.099Z,-1.01
2022-11-19T05:46:17.848Z,-0.99
2022-11-19T05:47:20.528Z,-0.99
2022-11-19T05:48:24.258Z,-0.97
2022-11-19T05:49:26.982Z,-0.97
2022-11-19T05:50:30.788Z,-0.97
2022-11-19T05:51:33.516Z,-0.98
2022-11-19T05:52:38.076Z,-1.00
2022-11-19T05:53:40.879Z,-1.01
2022-11-19T05:54:44.627Z,-1.03
2022-11-19T05:55:49.845Z,-1.05
2022-11-19T05:56:52.496Z,-1.06
2022-11-19T05:57:56.297Z,-1.09
2022-11-19T05:58:59.099Z,-1.11
2022-11-19T06:00:02.796Z,-1.12
2022-11-19T06:01:15.276Z,-1.14
2022-11-19T06:02:19.156Z,-1.17
2022-11-19T06:03:21.908Z,-1.17
2022-11-19T06:04:25.780Z,-1.16
2022-11-19T06:05:28.807Z,-1.12
2022-11-19T06:06:32.479Z,-1.09
2022-11-19T06:07:35.216Z,-1.07
2022-11-19T06:08:39.011Z,-1.06
2022-11-19T06:09:41.698Z,-1.03
2022-11-19T06:10:45.497Z,-1.01
2022-11-19T06:11:50.569Z,-0.99
2022-11-19T06:12:54.461Z,-0.98
2022-11-19T06:13:57.367Z,-0.96
2022-11-19T06:15:02.217Z,-0.94
2022-11-19T06:16:06.572Z,-0.93
2022-11-19T06:17:09.277Z,-0.92
2022-11-19T06:18:13.076Z,-0.92
2022-11-19T06:19:15.775Z,-0.91
2022-11-19T06:20:19.661Z,-0.93
2022-11-19T06:21:22.367Z,-0.93
2022-11-19T06:22:26.136Z,-0.93
2022-11-19T06:23:28.947Z,-0.93
2022-11-19T06:24:32.805Z,-0.93
2022-11-19T06:25:35.518Z,-0.93
2022-11-19T06:26:39.247Z,-0.93
2022-11-19T06:27:43.297Z,-0.93
2022-11-19T06:28:47.044Z,-0.93
2022-11-19T06:29:54.980Z,-0.93
2022-11-19T06:30:59.978Z,-0.95
2022-11-19T06:32:02.674Z,-0.96
2022-11-19T06:33:06.376Z,-0.97
2022-11-19T06:34:09.345Z,-0.99
2022-11-19T06:35:14.497Z,-1.01
2022-11-19T06:36:17.359Z,-1.01
2022-11-19T06:37:21.238Z,-0.99
2022-11-19T06:38:24.157Z,-0.99
2022-11-19T06:39:28.146Z,-0.97
2022-11-19T06:40:30.803Z,-0.96
2022-11-19T06:41:34.510Z,-0.95
2022-11-19T06:42:37.153Z,-0.96
2022-11-19T06:43:43.250Z,-0.97
2022-11-19T06:44:45.882Z,-0.98
2022-11-19T06:45:49.537Z,-0.99
2022-11-19T06:46:52.186Z,-0.97
2022-11-19T06:47:55.877Z,-0.97
2022-11-19T06:48:58.758Z,-0.95
2022-11-19T06:50:02.480Z,-0.94
2022-11-19T06:51:06.082Z,-0.92
2022-11-19T06:52:09.828Z,-0.90
2022-11-19T06:53:12.677Z,-0.90
2022-11-19T06:54:16.504Z,-0.89
2022-11-19T06:55:19.356Z,-0.89
2022-11-19T06:56:23.028Z,-0.89
2022-11-19T06:57:25.960Z,-0.86
2022-11-19T06:58:30.160Z,-0.85
2022-11-19T06:59:35.208Z,-0.83
2022-11-19T07:00:38.956Z,-0.81
2022-11-19T07:01:41.752Z,-0.81
2022-11-19T07:02:45.547Z,-0.80
2022-11-19T07:03:48.169Z,-0.80
2022-11-19T07:04:51.982Z,-0.80
2022-11-19T07:05:57.990Z,-0.79
2022-11-19T07:07:01.773Z,-0.81
2022-11-19T07:08:04.638Z,-0.82
2022-11-19T07:09:08.478Z,-0.82
2022-11-19T07:10:11.206Z,-0.80
2022-11-19T07:11:27.121Z,-0.79
2022-11-19T07:12:29.840Z,-0.79
2022-11-19T07:13:47.446Z,-0.77
2022-11-19T07:14:52.528Z,-0.76
2022-11-19T07:15:55.214Z,-0.75
2022-11-19T07:16:59.057Z,-0.74
2022-11-19T07:18:02.018Z,-0.71
2022-11-19T07:19:07.097Z,-0.70
2022-11-19T07:20:11.483Z,-0.72
2022-11-19T07:21:15.150Z,-0.75
2022-11-19T07:22:17.855Z,-0.79
2022-11-19T07:23:21.549Z,-0.81
2022-11-19T07:24:25.393Z,-0.82
2022-11-19T07:25:28.365Z,-0.81
2022-11-19T07:26:32.807Z,-0.81
2022-11-19T07:27:35.537Z,-0.80
2022-11-19T07:28:39.218Z,-0.78
2022-11-19T07:29:43.037Z,-0.76
2022-11-19T07:30:47.109Z,-0.74
2022-11-19T07:31:51.013Z,-0.71
2022-11-19T07:32:54.396Z,-0.69
2022-11-19T07:33:58.209Z,-0.67
2022-11-19T07:35:01.857Z,-0.64
2022-11-19T07:36:05.068Z,-0.62
2022-11-19T07:37:08.820Z,-0.60
2022-11-19T07:38:11.501Z,-0.60
2022-11-19T07:39:15.206Z,-0.59
2022-11-19T07:40:19.068Z,-0.57
2022-11-19T07:41:40.406Z,-0.56
2022-11-19T07:42:53.319Z,-0.54
2022-11-19T07:43:57.097Z,-0.53
2022-11-19T07:44:59.738Z,-0.52
2022-11-19T07:46:08.976Z,-0.53
2022-11-19T07:47:11.647Z,-0.50
2022-11-19T07:48:15.440Z,-0.48
2022-11-19T07:49:19.430Z,-0.47
2022-11-19T07:50:23.429Z,-0.43
2022-11-19T07:51:26.621Z,-0.39
2022-11-19T07:52:30.896Z,-0.36
2022-11-19T07:53:33.527Z,-0.32
2022-11-19T07:54:37.389Z,-0.29
2022-11-19T07:55:40.187Z,-0.28
2022-11-19T07:56:44.309Z,-0.25
2022-11-19T07:57:46.957Z,-0.25
2022-11-19T07:58:50.665Z,-0.24
2022-11-19T07:59:54.420Z,-0.24
2022-11-19T08:00:57.293Z,-0.23
2022-11-19T08:02:02.627Z,-0.21
2022-11-19T08:03:05.943Z,-0.19
2022-11-19T08:04:09.897Z,-0.16
2022-11-19T08:05:12.587Z,-0.13
2022-11-19T08:06:16.873Z,-0.11
2022-11-19T08:07:20.749Z,-0.10
2022-11-19T08:08:23.469Z,-0.10
2022-11-19T08:09:27.347Z,-0.09
2022-11-19T08:10:31.866Z,-0.04
2022-11-19T08:11:35.842Z,0.00
2022-11-19T08:12:38.546Z,0.04
2022-11-19T08:13:42.713Z,0.07
2022-11-19T08:14:45.377Z,0.10
2022-11-19T08:15:49.091Z,0.14
2022-11-19T08:17:09.925Z,0.20
2022-11-19T08:18:14.109Z,0.27
2022-11-19T08:19:19.000Z,0.31
2022-11-19T08:20:22.070Z,0.33
2022-11-19T08:21:25.783Z,0.38
2022-11-19T08:22:30.048Z,0.42
2022-11-19T08:23:32.768Z,0.51
2022-11-19T08:24:36.587Z,0.56
2022-11-19T08:25:39.597Z,0.60
2022-11-19T08:26:43.569Z,0.65
2022-11-19T08:27:47.288Z,0.75
2022-11-19T08:28:50.026Z,0.85
2022-11-19T08:29:53.687Z,0.92
2022-11-19T08:30:57.749Z,0.98
2022-11-19T08:32:01.656Z,1.04
2022-11-19T08:33:04.480Z,1.11
2022-11-19T08:34:09.753Z,1.15
2022-11-19T08:35:12.392Z,1.16
2022-11-19T08:36:16.192Z,1.22
2022-11-19T08:37:19.958Z,1.26
2022-11-19T08:38:22.619Z,1.32
2022-11-19T08:39:26.336Z,1.29
2022-11-19T08:40:29.055Z,1.29
2022-11-19T08:41:49.916Z,1.28
2022-11-19T08:43:02.537Z,1.23
2022-11-19T08:44:05.752Z,1.19
2022-11-19T08:45:10.162Z,1.18
2022-11-19T08:46:12.928Z,1.16
2022-11-19T08:47:16.918Z,1.14
2022-11-19T08:48:20.016Z,1.08
2022-11-19T08:49:25.268Z,1.03
2022-11-19T08:50:28.774Z,1.01
2022-11-19T08:51:32.688Z,1.01
2022-11-19T08:52:35.584Z,1.01
2022-11-19T08:53:39.237Z,1.02
2022-11-19T08:54:43.720Z,1.01
2022-11-19T08:55:51.652Z,0.99
2022-11-19T08:56:55.782Z,1.00
2022-11-19T08:58:02.277Z,1.03
2022-11-19T08:59:06.028Z,1.03
2022-11-19T09:00:09.918Z,1.02
2022-11-19T09:01:15.154Z,0.99
2022-11-19T09:02:19.337Z,0.91
2022-11-19T09:03:22.602Z,0.86
2022-11-19T09:04:27.948Z,0.83
2022-11-19T09:05:32.058Z,0.82
2022-11-19T09:06:35.287Z,0.82
2022-11-19T09:07:39.159Z,0.83
2022-11-19T09:08:42.228Z,0.86
2022-11-19T09:09:46.056Z,0.86
2022-11-19T09:10:48.732Z,0.84
2022-11-19T09:11:52.426Z,0.85
2022-11-19T09:12:55.182Z,0.90
2022-11-19T09:13:59.097Z,0.95
2022-11-19T09:15:02.948Z,0.97
2022-11-19T09:16:07.315Z,1.01
2022-11-19T09:17:11.088Z,1.02
2022-11-19T09:18:15.200Z,1.03
2022-11-19T09:19:18.967Z,1.06
2022-11-19T09:20:24.446Z,1.06
2022-11-19T09:21:27.141Z,1.06
2022-11-19T09:22:31.636Z,1.06
2022-11-19T09:23:35.294Z,1.07
2022-11-19T09:24:38.027Z,1.11
2022-11-19T09:25:41.716Z,1.14
2022-11-19T09:26:48.864Z,1.18
2022-11-19T09:27:55.498Z,1.21
2022-11-19T09:28:58.297Z,1.20
2022-11-19T09:30:01.974Z,1.17
2022-11-19T09:31:08.416Z,1.14
2022-11-19T09:32:11.202Z,1.07
2022-11-19T09:33:14.956Z,1.01
2022-11-19T09:34:19.365Z,0.95
2022-11-19T09:35:23.691Z,0.87
2022-11-19T09:36:27.594Z,0.79
2022-11-19T09:37:34.182Z,0.69
2022-11-19T09:38:38.034Z,0.60
2022-11-19T09:39:40.721Z,0.49
2022-11-19T09:40:46.109Z,0.38
2022-11-19T09:41:54.348Z,0.30
2022-11-19T09:43:08.455Z,0.20
2022-11-19T09:44:33.163Z,0.09
2022-11-19T09:45:45.379Z,-0.02
2022-11-19T09:46:56.719Z,-0.08
2022-11-19T09:48:10.964Z,-0.14
2022-11-19T09:49:20.296Z,-0.16
2022-11-19T09:50:26.509Z,-0.17
2022-11-19T09:51:32.816Z,-0.17
2022-11-19T09:52:41.248Z,-0.15
2022-11-19T09:53:52.188Z,-0.15
2022-11-19T09:54:55.838Z,-0.12
2022-11-19T09:56:00.666Z,-0.08
2022-11-19T09:57:07.429Z,-0.03
2022-11-19T09:58:14.876Z,0.06
2022-11-19T09:59:25.654Z,0.12
2022-11-19T10:00:30.351Z,0.16
2022-11-19T10:01:34.458Z,0.19
2022-11-19T10:02:37.361Z,0.23
2022-11-19T10:03:42.691Z,0.22
2022-11-19T10:04:48.748Z,0.20
2022-11-19T10:06:17.174Z,0.19
2022-11-19T10:07:28.704Z,0.19
2022-11-19T10:08:40.937Z,0.23
2022-11-19T10:09:53.467Z,0.28
2022-11-19T10:11:08.223Z,0.33
2022-11-19T10:12:20.897Z,0.32
2022-11-19T10:13:41.100Z,0.33
2022-11-19T10:14:50.026Z,0.31
2022-11-19T10:16:08.834Z,0.31
2022-11-19T10:17:20.638Z,0.36
2022-11-19T10:18:31.452Z,0.37
2022-11-19T10:19:42.021Z,0.41
2022-11-19T10:21:00.089Z,0.49
2022-11-19T10:22:09.802Z,0.57
2022-11-19T10:23:15.938Z,0.64
2022-11-19T10:24:27.581Z,0.69
2022-11-19T10:25:34.090Z,0.74
2022-11-19T10:26:39.589Z,0.77
2022-11-19T10:27:47.734Z,0.77
2022-11-19T10:28:56.332Z,0.80
2022-11-19T10:30:00.757Z,0.83
2022-11-19T10:31:08.657Z,0.85
2022-11-19T10:32:21.546Z,0.83
2022-11-19T10:33:29.271Z,0.83
2022-11-19T10:34:34.904Z,0.86
2022-11-19T10:35:39.886Z,0.88
2022-11-19T10:36:47.044Z,0.89
2022-11-19T10:37:53.920Z,0.87
2022-11-19T10:39:04.097Z,0.89
2022-11-19T10:40:13.269Z,0.87
2022-11-19T10:41:18.679Z,0.93
2022-11-19T10:42:24.830Z,1.04
2022-11-19T10:43:31.465Z,1.19
2022-11-19T10:44:38.015Z,1.34
2022-11-19T10:45:41.789Z,1.44
2022-11-19T10:46:44.684Z,1.50
2022-11-19T10:47:52.379Z,1.47
2022-11-19T10:48:56.938Z,1.39
2022-11-19T10:50:00.656Z,1.32
2022-11-19T10:51:10.224Z,1.25
2022-11-19T10:52:25.413Z,1.18
2022-11-19T10:53:32.400Z,1.17
2022-11-19T10:54:35.107Z,1.12
2022-11-19T10:55:40.946Z,1.05
2022-11-19T10:56:44.875Z,0.97
2022-11-19T10:57:48.998Z,0.91
2022-11-19T10:58:55.456Z,0.87
2022-11-19T10:59:58.447Z,0.84
2022-11-19T11:01:04.098Z,0.87
2022-11-19T11:02:23.853Z,0.93
2022-11-19T11:03:35.170Z,0.94
2022-11-19T11:05:02.947Z,0.94
2022-11-19T11:06:10.261Z,0.93
2022-11-19T11:07:12.949Z,0.95
2022-11-19T11:08:18.107Z,0.95
2022-11-19T11:09:32.238Z,0.95
2022-11-19T11:10:39.176Z,0.96
2022-11-19T11:11:59.796Z,0.97
2022-11-19T11:13:43.255Z,0.95
2022-11-19T11:14:55.134Z,1.01
2022-11-19T11:15:58.956Z,1.12
2022-11-19T11:17:02.679Z,1.23
2022-11-19T11:18:07.868Z,1.33
2022-11-19T11:19:15.059Z,1.47
2022-11-19T11:20:23.246Z,1.51
2022-11-19T11:21:35.935Z,1.53
2022-11-19T11:22:39.077Z,1.56
2022-11-19T11:23:52.877Z,1.63
2022-11-19T11:24:55.589Z,1.69
2022-11-19T11:26:05.288Z,1.73
2022-11-19T11:27:31.109Z,1.79
2022-11-19T11:28:35.374Z,1.86
2022-11-19T11:29:39.045Z,1.89
2022-11-19T11:30:52.638Z,1.91
2022-11-19T11:31:56.455Z,1.91
2022-11-19T11:32:59.275Z,1.92
2022-11-19T11:34:03.575Z,1.89
2022-11-19T11:35:12.153Z,1.85
2022-11-19T11:36:21.446Z,1.75
2022-11-19T11:37:24.766Z,1.65
2022-11-19T11:38:29.186Z,1.62
2022-11-19T11:39:36.807Z,1.59
2022-11-19T11:40:39.496Z,1.54
2022-11-19T11:43:07.283Z,1.38
2022-11-19T11:44:20.116Z,1.30
2022-11-19T11:45:27.988Z,1.24
2022-11-19T11:46:42.046Z,1.18
2022-11-19T11:47:45.818Z,1.13
2022-11-19T11:48:49.316Z,1.06
2022-11-19T11:49:59.448Z,1.04
2022-11-19T11:51:02.065Z,0.99
2022-11-19T11:52:14.954Z,0.97
2022-11-19T11:53:30.325Z,0.94
2022-11-19T11:54:35.684Z,0.92
2022-11-19T11:55:38.894Z,0.91
2022-11-19T11:56:42.666Z,0.90
2022-11-19T11:57:53.278Z,0.92
2022-11-19T11:59:15.492Z,0.91
2022-11-19T12:00:35.149Z,0.88
2022-11-19T12:01:38.657Z,0.88
2022-11-19T12:02:42.440Z,0.89
2022-11-19T12:03:55.678Z,0.92
2022-11-19T12:05:02.434Z,0.96
2022-11-19T12:06:09.768Z,1.02
2022-11-19T12:07:21.629Z,1.05
2022-11-19T12:08:45.394Z,0.98
2022-11-19T12:09:55.497Z,0.93
2022-11-19T12:11:03.778Z,0.91
2022-11-19T12:12:11.167Z,0.95
2022-11-19T12:13:39.915Z,0.92
2022-11-19T12:14:50.427Z,0.89
2022-11-19T12:15:57.635Z,0.90
2022-11-19T12:17:23.809Z,0.91
2022-11-19T12:18:32.684Z,0.92
2022-11-19T12:19:56.146Z,0.93
2022-11-19T12:21:03.515Z,0.91
2022-11-19T12:22:13.943Z,0.93
2022-11-19T12:23:30.245Z,0.93
2022-11-19T12:24:41.755Z,0.94
2022-11-19T12:25:57.623Z,0.98
2022-11-19T12:27:11.709Z,1.00
2022-11-19T12:28:38.177Z,1.02
2022-11-19T12:29:48.746Z,1.05
2022-11-19T12:31:00.925Z,1.06
2022-11-19T12:32:17.884Z,1.03
2022-11-19T12:33:29.133Z,0.98
2022-11-19T12:34:56.693Z,0.90
2022-11-19T12:36:10.175Z,0.83
2022-11-19T12:37:23.695Z,0.73
2022-11-19T12:38:45.266Z,0.68
2022-11-19T12:39:54.136Z,0.66
2022-11-19T12:41:09.384Z,0.63
2022-11-19T12:42:35.419Z,0.60
2022-11-19T12:44:00.324Z,0.54
2022-11-19T12:45:07.463Z,0.48
2022-11-19T12:46:19.850Z,0.45
2022-11-19T12:47:31.059Z,0.44
2022-11-19T12:48:52.044Z,0.42
2022-11-19T12:50:02.575Z,0.39
2022-11-19T12:51:09.768Z,0.38
2022-11-19T12:52:36.955Z,0.34
2022-11-19T12:53:57.351Z,0.31
2022-11-19T12:55:06.312Z,0.26
2022-11-19T12:56:21.885Z,0.22
2022-11-19T12:57:42.348Z,0.17
2022-11-19T12:58:49.556Z,0.14
2022-11-19T13:00:09.326Z,0.12
2022-11-19T13:01:16.075Z,0.08
2022-11-19T13:02:23.767Z,0.04
2022-11-19T13:03:41.865Z,0.00
2022-11-19T13:04:47.255Z,-0.03
2022-11-19T13:05:53.568Z,-0.06
2022-11-19T13:07:00.027Z,-0.07
2022-11-19T13:08:07.974Z,-0.10
2022-11-19T13:09:17.909Z,-0.15
2022-11-19T13:10:25.591Z,-0.17
2022-11-19T13:11:36.711Z,-0.22
2022-11-19T13:12:43.206Z,-0.25
2022-11-19T13:13:48.825Z,-0.23
2022-11-19T13:14:55.204Z,-0.19
2022-11-19T13:16:01.047Z,-0.16
2022-11-19T13:17:05.358Z,-0.14
2022-11-19T13:18:12.547Z,-0.10
2022-11-19T13:19:23.694Z,-0.06
2022-11-19T13:20:30.500Z,-0.05
2022-11-19T13:21:41.223Z,-0.05
2022-11-19T13:22:47.661Z,-0.06
2022-11-19T13:23:52.463Z,-0.06
2022-11-19T13:24:59.525Z,-0.06
2022-11-19T13:26:04.536Z,-0.07
2022-11-19T13:27:16.590Z,-0.10
2022-11-19T13:28:27.359Z,-0.13
2022-11-19T13:29:38.024Z,-0.15
2022-11-19T13:30:44.666Z,-0.14
2022-11-19T13:31:52.846Z,-0.13
2022-11-19T13:33:03.841Z,-0.12
2022-11-19T13:34:15.678Z,-0.15
2022-11-19T13:35:23.704Z,-0.19
2022-11-19T13:36:30.865Z,-0.23
2022-11-19T13:37:44.424Z,-0.25
2022-11-19T13:38:53.148Z,-0.28
2022-11-19T13:40:01.229Z,-0.30
2022-11-19T13:41:09.528Z,-0.33
2022-11-19T13:42:33.283Z,-0.35
2022-11-19T13:43:56.675Z,-0.38
2022-11-19T13:44:59.446Z,-0.42
2022-11-19T13:46:10.587Z,-0.43
2022-11-19T13:47:17.486Z,-0.43
2022-11-19T13:48:25.360Z,-0.47
2022-11-19T13:49:31.794Z,-0.49
2022-11-19T13:50:39.135Z,-0.53
2022-11-19T13:51:46.471Z,-0.56
2022-11-19T13:52:54.648Z,-0.57
2022-11-19T13:54:02.948Z,-0.59
2022-11-19T13:55:32.726Z,-0.60
2022-11-19T13:56:42.892Z,-0.62
2022-11-19T13:57:48.408Z,-0.60
2022-11-19T13:58:53.906Z,-0.60
2022-11-19T14:00:03.335Z,-0.58
2022-11-19T14:01:43.764Z,-0.58
2022-11-19T14:03:07.319Z,-0.61
2022-11-19T14:04:22.807Z,-0.59
2022-11-19T14:05:38.810Z,-0.56
2022-11-19T14:06:56.756Z,-0.53
2022-11-19T14:08:25.075Z,-0.51
2022-11-19T14:09:37.097Z,-0.48
2022-11-19T14:10:45.340Z,-0.46
2022-11-19T14:12:02.847Z,-0.45
2022-11-19T14:13:38.717Z,-0.45
2022-11-19T14:15:16.665Z,-0.49
2022-11-19T14:16:44.089Z,-0.55
2022-11-19T14:18:10.646Z,-0.59
2022-11-19T14:19:33.694Z,-0.62
2022-11-19T14:21:07.155Z,-0.62
2022-11-19T14:22:51.759Z,-0.64
2022-11-19T14:24:12.828Z,-0.66
2022-11-19T14:25:59.174Z,-0.63
2022-11-19T14:27:17.435Z,-0.64
2022-11-19T14:28:47.385Z,-0.63
2022-11-19T14:29:58.077Z,-0.61
2022-11-19T14:31:03.754Z,-0.59
2022-11-19T14:32:19.751Z,-0.58
2022-11-19T14:33:42.734Z,-0.56
2022-11-19T14:34:47.972Z,-0.56